Time;durP1;ratioP1;P1;durP2;ratioP2;P2;SDS_P1;SDS_P2;PMS_P1;PMS_P2;Temp;Humidity;BMP_temperature;BMP_pressure;BME280_temperature;BME280_humidity;BME280_pressure;Samples;Min_cycle;Max_cycle;Signal;HPM_P1;HPM_P2
2021/11/17 02:28:19;;;;;;;43.17;20.73;;;7.00;99.90;;;;;;5056673;28;20117;-42
2021/11/17 02:30:50;;;;;;;47.80;21.27;;;6.90;99.90;;;;;;5066729;28;20041;-42
2021/11/17 02:33:22;;;;;;;49.50;21.98;;;7.00;99.90;;;;;;5067737;28;20035;-43
2021/11/17 02:36:32;;;;;;;41.85;20.35;;;7.00;99.90;;;;;;5067761;28;20446;-43
2021/11/17 02:39:12;;;;;;;44.58;20.08;;;7.00;99.90;;;;;;5043960;28;20048;-42
2021/11/17 02:42:12;;;;;;;45.42;22.40;;;7.00;99.90;;;;;;5064675;28;20086;-42
2021/11/17 02:44:50;;;;;;;44.40;20.27;;;7.00;99.90;;;;;;5047059;28;20039;-42
2021/11/17 02:47:21;;;;;;;41.38;20.30;;;7.10;99.90;;;;;;5064954;28;20029;-42
2021/11/17 02:50:05;;;;;;;39.85;19.13;;;7.10;99.90;;;;;;5067285;28;20024;-43
2021/11/17 02:52:33;;;;;;;34.92;16.75;;;7.10;99.90;;;;;;5066329;28;20044;-42
2021/11/17 02:55:27;;;;;;;40.88;19.17;;;7.10;99.90;;;;;;5066735;28;20805;-42
2021/11/17 02:58:23;;;;;;;40.88;17.27;;;7.10;99.90;;;;;;5067626;28;20083;-41
2021/11/17 03:01:16;;;;;;;40.28;19.13;;;7.10;99.90;;;;;;5066665;28;20480;-42
2021/11/17 03:03:53;;;;;;;45.85;21.25;;;7.10;99.90;;;;;;5066456;28;20322;-43
2021/11/17 03:06:37;;;;;;;41.75;20.35;;;7.10;99.90;;;;;;5067237;28;20020;-43
2021/11/17 03:09:15;;;;;;;42.65;20.08;;;7.10;99.90;;;;;;5056916;28;20511;-42
2021/11/17 03:12:28;;;;;;;43.97;20.58;;;7.10;99.90;;;;;;5069525;28;20075;-43
2021/11/17 03:15:15;;;;;;;41.58;19.67;;;7.10;99.90;;;;;;5046843;28;20044;-42
2021/11/17 03:18:03;;;;;;;41.95;19.55;;;7.10;99.90;;;;;;5068772;28;20051;-43
2021/11/17 03:20:50;;;;;;;46.85;21.95;;;7.10;99.90;;;;;;5070694;28;20020;-42
2021/11/17 03:23:28;;;;;;;42.30;20.05;;;7.10;99.90;;;;;;5070601;28;20031;-43
2021/11/17 03:26:10;;;;;;;44.17;20.05;;;7.10;99.90;;;;;;5050609;28;20029;-44
2021/11/17 03:28:53;;;;;;;43.90;20.20;;;7.10;99.90;;;;;;5066726;28;20036;-44
2021/11/17 03:31:43;;;;;;;41.97;20.13;;;7.20;99.90;;;;;;5070961;28;20044;-43
2021/11/17 03:34:27;;;;;;;38.50;17.98;;;7.10;99.90;;;;;;5070325;28;20536;-42
2021/11/17 03:37:20;;;;;;;40.20;19.75;;;7.20;99.90;;;;;;5070461;28;20608;-43
2021/11/17 03:40:25;;;;;;;47.22;21.05;;;7.20;99.90;;;;;;5068543;28;20021;-42
2021/11/17 03:43:16;;;;;;;47.05;20.50;;;7.20;99.90;;;;;;5069730;28;20020;-43
2021/11/17 03:46:10;;;;;;;42.20;19.80;;;7.20;99.90;;;;;;5067155;28;20085;-43
2021/11/17 03:48:38;;;;;;;42.33;18.98;;;7.20;99.90;;;;;;5069706;28;20426;-42
2021/11/17 03:51:09;;;;;;;39.60;19.20;;;7.20;99.90;;;;;;5069770;28;20052;-42
2021/11/17 03:54:12;;;;;;;40.65;18.92;;;7.20;99.90;;;;;;5070084;28;20555;-43
2021/11/17 03:57:02;;;;;;;36.90;17.42;;;7.20;99.90;;;;;;5069878;28;20373;-42
2021/11/17 03:59:56;;;;;;;42.95;19.30;;;7.20;99.90;;;;;;5070144;28;20025;-42
2021/11/17 04:02:44;;;;;;;45.05;20.42;;;7.20;99.90;;;;;;5049959;28;20056;-43
2021/11/17 04:05:24;;;;;;;42.72;19.90;;;7.20;99.90;;;;;;5069572;28;20025;-42
2021/11/17 04:08:06;;;;;;;36.38;18.15;;;7.20;99.90;;;;;;5069900;28;20369;-43
2021/11/17 04:11:02;;;;;;;35.22;17.27;;;7.20;99.90;;;;;;5069393;28;20021;-42
2021/11/17 04:13:46;;;;;;;42.53;20.10;;;7.20;99.90;;;;;;5070053;28;20101;-43
2021/11/17 04:16:18;;;;;;;41.25;19.25;;;7.20;99.90;;;;;;5058107;28;20056;-43
2021/11/17 04:19:02;;;;;;;38.00;18.50;;;7.20;99.90;;;;;;5069152;28;20395;-43
2021/11/17 04:22:00;;;;;;;44.40;19.42;;;7.20;99.90;;;;;;5059240;28;20028;-43
2021/11/17 04:24:39;;;;;;;40.10;17.20;;;7.20;99.90;;;;;;5068938;28;20064;-42
2021/11/17 04:27:10;;;;;;;40.30;18.15;;;7.20;99.90;;;;;;5069785;28;20469;-43
2021/11/17 04:30:05;;;;;;;35.92;17.75;;;7.30;99.90;;;;;;5068933;28;20044;-43
2021/11/17 04:32:59;;;;;;;44.63;20.15;;;7.30;99.90;;;;;;5068382;28;20135;-43
2021/11/17 04:35:37;;;;;;;38.25;19.23;;;7.30;99.90;;;;;;5068943;28;20024;-42
2021/11/17 04:38:27;;;;;;;41.75;19.42;;;7.30;99.90;;;;;;5068984;28;20151;-42
2021/11/17 04:41:23;;;;;;;37.80;18.30;;;7.30;99.90;;;;;;5068981;28;20040;-42
2021/11/17 04:44:03;;;;;;;39.70;19.17;;;7.30;99.90;;;;;;5049391;28;20155;-43
2021/11/17 04:47:02;;;;;;;37.13;17.65;;;7.30;99.90;;;;;;5068376;28;20029;-43
2021/11/17 04:50:01;;;;;;;39.65;18.50;;;7.30;99.90;;;;;;5068857;28;20452;-43
2021/11/17 04:52:49;;;;;;;46.25;20.60;;;7.20;99.90;;;;;;5057626;28;20039;-43
2021/11/17 04:55:36;;;;;;;42.78;20.85;;;7.30;99.90;;;;;;5069690;28;20029;-43
2021/11/17 04:58:33;;;;;;;41.83;19.95;;;7.20;99.90;;;;;;5068745;28;20028;-42
2021/11/17 05:01:31;;;;;;;42.15;18.85;;;7.20;99.90;;;;;;5068614;28;20031;-42
2021/11/17 05:04:30;;;;;;;36.63;17.42;;;7.20;99.90;;;;;;5068578;28;20040;-44
2021/11/17 05:07:16;;;;;;;36.85;18.23;;;7.20;99.90;;;;;;5068075;28;20460;-43
2021/11/17 05:10:10;;;;;;;41.78;20.48;;;7.20;99.90;;;;;;5068676;28;20754;-42
2021/11/17 05:12:53;;;;;;;36.38;17.52;;;7.20;99.90;;;;;;5067925;28;20434;-43
2021/11/17 05:15:38;;;;;;;38.80;19.02;;;7.20;99.90;;;;;;5068646;28;20124;-43
2021/11/17 05:18:15;;;;;;;36.28;18.20;;;7.20;99.90;;;;;;5066973;28;20032;-44
2021/11/17 05:21:08;;;;;;;43.97;20.27;;;7.20;99.90;;;;;;5067812;28;20013;-41
2021/11/17 05:23:55;;;;;;;44.63;20.67;;;7.10;99.90;;;;;;5058852;28;20020;-44
2021/11/17 05:26:56;;;;;;;48.58;20.50;;;7.10;99.90;;;;;;5067883;28;20043;-43
2021/11/17 05:29:31;;;;;;;37.63;18.33;;;7.10;99.90;;;;;;5068116;28;20036;-43
2021/11/17 05:32:12;;;;;;;38.95;18.73;;;7.10;99.90;;;;;;5068117;28;20143;-42
2021/11/17 05:35:03;;;;;;;37.03;17.58;;;7.10;99.90;;;;;;5067144;28;20439;-43
2021/11/17 05:37:44;;;;;;;39.08;18.52;;;7.10;99.90;;;;;;5068557;28;20039;-43
2021/11/17 05:40:34;;;;;;;36.42;16.75;;;7.10;99.90;;;;;;5068346;28;20024;-42
2021/11/17 05:43:30;;;;;;;30.88;14.90;;;7.10;99.90;;;;;;5067399;28;20032;-43
2021/11/17 05:46:18;;;;;;;33.60;15.95;;;7.10;99.90;;;;;;5048003;28;20420;-42
2021/11/17 05:49:05;;;;;;;38.17;17.75;;;7.10;99.90;;;;;;5067867;28;20046;-43
2021/11/17 05:52:09;;;;;;;33.97;16.13;;;7.10;99.90;;;;;;5068389;28;20036;-42
2021/11/17 05:55:04;;;;;;;32.58;15.88;;;7.10;99.90;;;;;;5054494;28;20033;-42
2021/11/17 05:58:03;;;;;;;38.20;17.92;;;7.10;99.90;;;;;;5068009;28;20041;-42
2021/11/17 06:00:49;;;;;;;40.42;17.73;;;7.10;99.90;;;;;;5059014;28;20043;-43
2021/11/17 06:03:41;;;;;;;42.90;17.65;;;7.10;99.90;;;;;;5067610;28;20036;-43
2021/11/17 06:06:06;;;;;;;37.20;17.33;;;7.20;99.90;;;;;;5067952;28;20051;-43
2021/11/17 06:08:32;;;;;;;43.10;18.25;;;7.20;99.90;;;;;;5067060;28;20036;-43
2021/11/17 06:11:00;;;;;;;38.60;18.55;;;7.20;99.90;;;;;;5068066;28;20384;-43
2021/11/17 06:13:27;;;;;;;42.35;18.70;;;7.30;99.90;;;;;;5067629;28;20027;-43
2021/11/17 06:15:54;;;;;;;40.83;19.45;;;7.30;99.90;;;;;;5066757;28;20085;-42
2021/11/17 06:18:26;;;;;;;44.85;18.48;;;7.30;99.90;;;;;;5067954;28;20107;-43
2021/11/17 06:20:52;;;;;;;43.35;19.08;;;7.30;99.90;;;;;;5067697;28;20024;-43
2021/11/17 06:23:32;;;;;;;37.35;17.50;;;7.30;99.90;;;;;;5067906;28;20048;-43
2021/11/17 06:26:05;;;;;;;33.97;17.30;;;7.40;99.90;;;;;;5067541;28;20020;-43
2021/11/17 06:28:31;;;;;;;37.78;18.65;;;7.40;99.90;;;;;;5067277;28;20480;-43
2021/11/17 06:31:00;;;;;;;39.15;17.65;;;7.40;99.90;;;;;;5067030;28;20032;-45
2021/11/17 06:33:25;;;;;;;45.75;18.90;;;7.40;99.90;;;;;;5067221;28;20036;-43
2021/11/17 06:35:51;;;;;;;39.72;18.75;;;7.40;99.90;;;;;;5067726;28;20028;-43
2021/11/17 06:38:19;;;;;;;39.85;17.38;;;7.40;99.90;;;;;;5067045;28;20622;-43
2021/11/17 06:40:47;;;;;;;42.50;19.17;;;7.40;99.90;;;;;;5067306;28;20035;-43
2021/11/17 06:43:13;;;;;;;38.25;18.10;;;7.40;99.90;;;;;;5067496;28;20512;-43
2021/11/17 06:45:38;;;;;;;39.78;17.95;;;7.50;99.90;;;;;;5067945;28;20048;-43
2021/11/17 06:48:05;;;;;;;40.30;19.63;;;7.40;99.90;;;;;;5066041;28;20066;-43
2021/11/17 06:50:33;;;;;;;43.17;19.83;;;7.50;99.90;;;;;;5067361;28;20031;-43
2021/11/17 06:52:59;;;;;;;35.65;16.95;;;7.50;99.90;;;;;;5069548;28;20036;-43
2021/11/17 06:55:24;;;;;;;38.65;18.90;;;7.50;99.90;;;;;;5070248;28;20028;-43
2021/11/17 06:57:50;;;;;;;40.95;17.77;;;7.50;99.90;;;;;;5069876;28;20537;-43
2021/11/17 07:00:25;;;;;;;39.28;18.55;;;7.50;99.90;;;;;;5070329;28;20028;-43
2021/11/17 07:02:51;;;;;;;35.83;16.98;;;7.50;99.90;;;;;;5071116;28;20012;-43
2021/11/17 07:05:17;;;;;;;43.95;19.83;;;7.50;99.90;;;;;;5069861;28;20393;-43
2021/11/17 07:07:43;;;;;;;39.78;18.38;;;7.50;99.90;;;;;;5070108;28;20028;-42
2021/11/17 07:10:12;;;;;;;40.10;17.15;;;7.50;99.90;;;;;;5069745;28;20043;-43
2021/11/17 07:12:38;;;;;;;38.42;17.58;;;7.60;99.90;;;;;;5069624;28;20519;-42
2021/11/17 07:15:05;;;;;;;36.22;16.63;;;7.50;99.90;;;;;;5069408;28;20036;-43
2021/11/17 07:17:31;;;;;;;37.72;16.83;;;7.60;99.90;;;;;;5070091;28;20400;-44
2021/11/17 07:19:56;;;;;;;40.30;18.05;;;7.60;99.90;;;;;;5068233;28;20020;-43
2021/11/17 07:22:22;;;;;;;32.70;15.60;;;7.60;99.90;;;;;;5070284;28;20022;-43
2021/11/17 07:24:47;;;;;;;39.22;18.45;;;7.60;99.90;;;;;;5070050;28;20033;-42
2021/11/17 07:27:18;;;;;;;33.17;15.63;;;7.60;99.90;;;;;;5068794;28;20035;-42
2021/11/17 07:29:45;;;;;;;35.70;16.70;;;7.60;99.90;;;;;;5069863;28;20017;-42
2021/11/17 07:32:11;;;;;;;45.28;20.35;;;7.60;99.90;;;;;;5069088;28;20040;-43
2021/11/17 07:34:36;;;;;;;41.75;18.98;;;7.60;99.90;;;;;;5069496;28;20028;-43
2021/11/17 07:37:05;;;;;;;39.83;20.15;;;7.60;99.90;;;;;;5070749;28;20028;-43
2021/11/17 07:39:30;;;;;;;39.97;19.02;;;7.60;99.90;;;;;;5068969;28;20047;-43
2021/11/17 07:41:56;;;;;;;43.47;20.52;;;7.70;99.90;;;;;;5069449;28;20084;-42
2021/11/17 07:44:22;;;;;;;37.97;18.98;;;7.70;99.90;;;;;;5059404;28;20048;-43
2021/11/17 07:46:52;;;;;;;41.05;19.38;;;7.70;99.90;;;;;;5067951;28;20024;-42
2021/11/17 07:49:19;;;;;;;43.90;20.27;;;7.70;99.90;;;;;;5070529;28;20024;-43
2021/11/17 07:51:45;;;;;;;38.65;18.20;;;7.70;99.90;;;;;;5070340;28;20060;-42
2021/11/17 07:54:12;;;;;;;38.97;18.52;;;7.70;99.90;;;;;;5069619;28;20286;-43
2021/11/17 07:56:41;;;;;;;41.22;19.50;;;7.80;99.90;;;;;;5068489;28;20436;-43
2021/11/17 07:59:09;;;;;;;43.10;20.00;;;7.70;99.90;;;;;;5069673;28;20763;-43
2021/11/17 08:01:38;;;;;;;44.30;20.08;;;7.70;99.90;;;;;;5069325;28;20387;-43
2021/11/17 08:04:05;;;;;;;42.72;19.00;;;7.80;99.90;;;;;;5069463;28;20426;-43
2021/11/17 08:06:31;;;;;;;41.97;19.45;;;7.80;99.90;;;;;;5069842;28;20404;-43
2021/11/17 08:08:58;;;;;;;44.40;20.52;;;7.80;99.90;;;;;;5069199;28;20459;-43
2021/11/17 08:11:24;;;;;;;44.05;19.58;;;7.80;99.90;;;;;;5069456;28;20031;-44
2021/11/17 08:13:50;;;;;;;42.40;19.60;;;7.80;99.90;;;;;;5069568;28;20488;-43
2021/11/17 08:16:17;;;;;;;39.22;18.67;;;7.90;99.90;;;;;;5069229;28;20041;-43
2021/11/17 08:18:43;;;;;;;45.17;21.67;;;7.90;99.90;;;;;;5069429;28;20013;-43
2021/11/17 08:21:14;;;;;;;45.67;21.50;;;8.00;99.90;;;;;;5069371;28;20029;-44
2021/11/17 08:23:40;;;;;;;44.45;22.15;;;8.00;99.90;;;;;;5068985;28;20021;-42
2021/11/17 08:26:07;;;;;;;44.92;21.35;;;8.00;99.90;;;;;;5069534;28;20020;-43
2021/11/17 08:28:33;;;;;;;49.20;23.23;;;8.10;99.90;;;;;;5069100;28;20054;-43
2021/11/17 08:30:58;;;;;;;42.97;21.83;;;8.10;99.90;;;;;;5068838;28;20020;-42
2021/11/17 08:33:30;;;;;;;52.78;21.98;;;8.20;99.90;;;;;;5069302;28;20364;-43
2021/11/17 08:35:57;;;;;;;48.15;21.05;;;8.20;99.90;;;;;;5069526;28;20059;-42
2021/11/17 08:38:24;;;;;;;45.45;21.60;;;8.20;99.90;;;;;;5068118;28;20408;-43
2021/11/17 08:40:53;;;;;;;44.30;19.60;;;8.20;99.90;;;;;;5069581;28;20112;-43
2021/11/17 08:43:20;;;;;;;46.33;21.73;;;8.30;99.90;;;;;;5068732;28;20059;-42
2021/11/17 08:45:48;;;;;;;49.10;21.65;;;8.30;99.90;;;;;;5068648;28;20028;-43
2021/11/17 08:48:15;;;;;;;50.72;22.55;;;8.30;99.90;;;;;;5069827;28;20017;-43
2021/11/17 08:50:41;;;;;;;49.88;23.88;;;8.30;99.90;;;;;;5068017;28;20069;-43
2021/11/17 08:53:09;;;;;;;52.45;24.30;;;8.30;99.90;;;;;;5068812;28;20044;-42
2021/11/17 08:55:42;;;;;;;60.50;25.42;;;8.30;99.90;;;;;;5069116;28;20426;-42
2021/11/17 08:58:08;;;;;;;53.50;23.23;;;8.40;99.90;;;;;;5067917;28;20097;-43
2021/11/17 09:00:35;;;;;;;55.17;23.40;;;8.50;99.90;;;;;;5067691;28;20024;-43
2021/11/17 09:03:03;;;;;;;47.90;22.77;;;8.50;99.90;;;;;;5068501;28;20012;-43
2021/11/17 09:05:33;;;;;;;52.03;23.38;;;8.60;99.90;;;;;;5067773;28;20472;-43
2021/11/17 09:07:59;;;;;;;57.60;24.90;;;8.60;99.90;;;;;;5068603;28;20028;-43
2021/11/17 09:10:27;;;;;;;54.10;22.83;;;8.60;99.90;;;;;;5068402;28;20024;-43
2021/11/17 09:12:53;;;;;;;42.70;20.45;;;8.60;99.90;;;;;;5067730;28;20036;-44
2021/11/17 09:15:23;;;;;;;54.38;24.27;;;8.60;99.90;;;;;;5068477;28;20039;-43
2021/11/17 09:17:49;;;;;;;55.72;25.33;;;8.60;99.90;;;;;;5068977;28;20025;-44
2021/11/17 09:20:16;;;;;;;61.17;25.83;;;8.60;99.90;;;;;;5067409;28;20032;-43
2021/11/17 09:22:42;;;;;;;56.13;25.17;;;8.60;99.90;;;;;;5068300;28;20149;-43
2021/11/17 09:25:09;;;;;;;60.60;25.80;;;8.60;99.90;;;;;;5068421;28;20032;-42
2021/11/17 09:27:38;;;;;;;58.58;25.65;;;8.60;99.90;;;;;;5067509;28;20044;-43
2021/11/17 09:30:09;;;;;;;57.35;24.23;;;8.60;99.90;;;;;;5068031;28;20032;-43
2021/11/17 09:32:35;;;;;;;59.63;25.80;;;8.60;99.90;;;;;;5065385;28;20040;-42
2021/11/17 09:35:08;;;;;;;60.95;25.50;;;8.70;99.90;;;;;;5067594;28;20013;-43
2021/11/17 09:37:33;;;;;;;;;;;8.70;99.90;;;;;;5068830;28;20097;-42
2021/11/17 09:39:59;;;;;;;55.47;23.83;;;8.70;99.90;;;;;;5067729;28;20306;-42
2021/11/17 09:42:25;;;;;;;61.55;26.83;;;8.70;99.90;;;;;;5067840;28;20460;-42
2021/11/17 09:44:51;;;;;;;54.65;26.25;;;8.80;99.90;;;;;;5067294;28;20048;-43
2021/11/17 09:47:21;;;;;;;51.92;23.90;;;8.80;99.90;;;;;;5061661;28;20106;-44
2021/11/17 09:49:52;;;;;;;46.65;22.15;;;8.80;99.90;;;;;;5067912;28;20792;-43
2021/11/17 09:52:26;;;;;;;47.35;21.05;;;8.80;99.90;;;;;;5068198;28;20036;-43
2021/11/17 09:55:12;;;;;;;42.78;20.52;;;8.80;99.90;;;;;;5066462;28;20013;-43
2021/11/17 09:57:42;;;;;;;40.63;20.08;;;8.80;99.90;;;;;;5058973;28;20025;-42
2021/11/17 10:00:23;;;;;;;47.40;22.13;;;8.90;99.90;;;;;;5067446;28;20094;-43
2021/11/17 10:03:18;;;;;;;50.28;23.20;;;8.90;99.90;;;;;;5057055;28;20020;-43
2021/11/17 10:13:57;;;;;;;52.22;22.92;;;9.10;99.90;;;;;;5068247;28;20072;-43
2021/11/17 10:16:23;;;;;;;56.03;26.13;;;9.10;99.90;;;;;;5066443;28;20060;-43
2021/11/17 10:19:12;;;;;;;51.30;24.13;;;9.10;99.90;;;;;;5067430;28;20024;-43
2021/11/17 10:21:38;;;;;;;62.38;27.33;;;9.10;99.90;;;;;;5065718;28;20538;-42
2021/11/17 10:24:10;;;;;;;64.13;28.83;;;9.20;99.90;;;;;;5067694;28;20107;-43
2021/11/17 10:26:47;;;;;;;59.78;26.95;;;9.20;99.90;;;;;;5067421;28;20021;-43
2021/11/17 10:29:52;;;;;;;58.40;26.23;;;9.20;99.90;;;;;;5066888;28;20768;-44
2021/11/17 10:32:39;;;;;;;57.55;26.38;;;9.30;99.90;;;;;;5056166;28;20058;-43
2021/11/17 10:35:12;;;;;;;56.90;26.33;;;9.30;99.90;;;;;;5047443;28;20047;-43
2021/11/17 10:37:45;;;;;;;55.92;26.27;;;9.30;99.90;;;;;;5061793;28;20052;-43
2021/11/17 10:40:17;;;;;;;59.05;26.40;;;9.30;99.90;;;;;;5067926;28;20055;-42
2021/11/17 10:42:43;;;;;;;57.92;26.67;;;9.30;99.90;;;;;;5066989;28;20016;-43
2021/11/17 10:45:11;;;;;;;59.22;27.00;;;9.40;99.90;;;;;;5067146;28;20401;-46
2021/11/17 10:47:49;;;;;;;67.03;27.85;;;9.30;99.90;;;;;;5067173;28;20024;-44
2021/11/17 10:50:21;;;;;;;73.03;29.48;;;9.40;99.90;;;;;;5067005;28;20392;-43
2021/11/17 10:53:04;;;;;;;55.78;25.30;;;9.40;99.90;;;;;;5066966;28;20033;-42
2021/11/17 10:55:37;;;;;;;;;;;9.50;99.90;;;;;;5067676;28;20502;-43
2021/11/17 10:58:08;;;;;;;63.13;26.67;;;9.50;99.90;;;;;;5066192;28;19908;-43
2021/11/17 11:00:41;;;;;;;55.38;25.73;;;9.50;99.90;;;;;;5067091;28;20039;-42
2021/11/17 11:03:09;;;;;;;53.25;25.20;;;9.60;99.90;;;;;;5067173;28;20628;-43
2021/11/17 11:05:41;;;;;;;64.78;27.17;;;9.70;99.90;;;;;;5066279;28;20036;-42
2021/11/17 11:08:15;;;;;;;67.50;30.48;;;9.70;99.90;;;;;;5066776;28;20048;-43
2021/11/17 11:10:46;;;;;;;65.30;28.40;;;9.80;99.90;;;;;;5066851;28;20040;-42
2021/11/17 11:13:19;;;;;;;59.90;27.02;;;9.80;99.90;;;;;;5065861;28;20048;-43
2021/11/17 11:15:50;;;;;;;56.80;26.80;;;9.90;99.90;;;;;;5066681;28;20438;-43
2021/11/17 11:18:16;;;;;;;49.08;23.75;;;10.00;99.90;;;;;;5066763;28;20024;-43
2021/11/17 11:20:47;;;;;;;58.42;27.65;;;10.10;99.90;;;;;;5067027;28;20036;-43
2021/11/17 11:23:36;;;;;;;56.42;27.23;;;10.20;99.90;;;;;;5066523;28;20032;-43
2021/11/17 11:26:14;;;;;;;52.85;25.08;;;10.20;99.90;;;;;;5066577;28;20029;-43
2021/11/17 11:28:50;;;;;;;53.20;25.15;;;10.30;99.90;;;;;;5067135;28;20021;-43
2021/11/17 11:31:23;;;;;;;51.03;23.83;;;10.40;99.90;;;;;;5067807;28;20035;-43
2021/11/17 11:34:01;;;;;;;52.85;24.75;;;10.50;99.90;;;;;;5069553;28;20469;-43
2021/11/17 11:36:39;;;;;;;50.55;23.65;;;10.60;99.90;;;;;;5070665;28;20101;-43
2021/11/17 11:39:04;;;;;;;53.55;25.67;;;10.70;99.90;;;;;;5070181;28;20027;-42
2021/11/17 11:42:04;;;;;;;57.72;25.75;;;10.80;99.90;;;;;;5068871;28;20399;-43
2021/11/17 11:45:18;;;;;;;46.05;23.63;;;10.80;99.90;;;;;;5068929;28;20074;-43
2021/11/17 11:47:58;;;;;;;46.42;22.95;;;10.80;99.90;;;;;;5048973;28;20036;-43
2021/11/17 11:50:33;;;;;;;50.95;24.75;;;10.90;99.90;;;;;;5068126;28;20032;-43
2021/11/17 11:53:09;;;;;;;42.92;22.15;;;11.00;99.90;;;;;;5070258;28;20029;-45
2021/11/17 11:55:50;;;;;;;49.10;24.10;;;11.00;99.90;;;;;;5069705;28;20103;-42
2021/11/17 11:58:18;;;;;;;43.00;21.58;;;11.10;99.90;;;;;;5069807;28;20029;-43
2021/11/17 12:00:47;;;;;;;43.70;22.38;;;11.10;99.90;;;;;;5068910;28;20031;-43
2021/11/17 12:03:17;;;;;;;38.97;19.73;;;11.20;99.90;;;;;;5068940;28;20032;-43
2021/11/17 12:06:01;;;;;;;36.75;20.02;;;11.30;99.90;;;;;;5069462;28;20036;-44
2021/11/17 12:08:31;;;;;;;42.20;22.48;;;11.40;99.90;;;;;;5048908;28;20080;-42
2021/11/17 12:11:05;;;;;;;48.72;23.55;;;11.60;99.90;;;;;;5065698;28;20698;-42
2021/11/17 12:13:36;;;;;;;51.13;24.20;;;11.70;99.90;;;;;;5068101;28;20120;-42
2021/11/17 12:16:17;;;;;;;43.60;23.88;;;11.80;99.90;;;;;;5068136;28;20086;-43
2021/11/17 12:18:48;;;;;;;41.50;21.80;;;11.90;99.90;;;;;;5049322;28;20021;-42
2021/11/17 12:21:18;;;;;;;41.85;21.95;;;11.90;99.90;;;;;;5064802;28;20032;-42
2021/11/17 12:24:02;;;;;;;38.97;21.73;;;11.90;99.90;;;;;;5048251;28;20044;-44
2021/11/17 12:26:27;;;;;;;38.30;20.52;;;11.90;99.90;;;;;;5065334;28;20067;-43
2021/11/17 12:29:11;;;;;;;41.03;20.63;;;11.90;99.90;;;;;;5068381;28;20032;-43
2021/11/17 12:32:01;;;;;;;36.17;19.95;;;11.80;99.90;;;;;;5068701;28;20024;-43
2021/11/17 12:34:31;;;;;;;42.25;21.40;;;11.90;99.90;;;;;;5063935;28;20041;-44
2021/11/17 12:36:57;;;;;;;38.85;20.77;;;11.90;99.90;;;;;;5067936;28;20127;-43
2021/11/17 12:39:26;;;;;;;34.92;20.17;;;11.90;99.90;;;;;;5068671;28;20138;-43
2021/11/17 12:41:55;;;;;;;42.58;23.73;;;11.90;99.90;;;;;;5068798;28;20024;-43
2021/11/17 12:44:26;;;;;;;41.40;23.38;;;11.90;99.90;;;;;;5067515;28;20056;-44
2021/11/17 12:47:04;;;;;;;40.80;21.63;;;11.80;99.90;;;;;;5068207;28;20039;-43
2021/11/17 12:49:39;;;;;;;38.05;20.70;;;11.70;99.90;;;;;;5067091;28;20028;-43
2021/11/17 12:52:24;;;;;;;32.35;18.83;;;11.70;99.90;;;;;;5068086;28;20597;-43
2021/11/17 12:54:56;;;;;;;34.33;19.73;;;11.70;99.90;;;;;;5047948;28;20392;-43
2021/11/17 12:57:30;;;;;;;38.85;20.48;;;11.70;99.90;;;;;;5063123;28;20024;-43
2021/11/17 13:00:21;;;;;;;36.08;18.83;;;11.70;99.90;;;;;;5048479;28;20021;-43
2021/11/17 13:03:08;;;;;;;27.92;16.25;;;11.80;99.90;;;;;;5063840;28;20036;-43
2021/11/17 13:05:34;;;;;;;35.60;18.50;;;11.70;99.90;;;;;;5068145;28;20078;-43
2021/11/17 13:08:07;;;;;;;31.58;17.80;;;11.60;99.90;;;;;;5067949;28;20025;-43
2021/11/17 13:10:43;;;;;;;36.38;18.40;;;11.60;99.90;;;;;;5068167;28;20024;-43
2021/11/17 13:13:18;;;;;;;33.20;17.80;;;11.60;99.90;;;;;;5066970;28;20032;-42
2021/11/17 13:16:01;;;;;;;27.98;16.98;;;11.50;99.90;;;;;;5067628;28;20048;-43
2021/11/17 13:18:28;;;;;;;32.92;18.63;;;11.50;99.90;;;;;;5067023;28;20032;-43
2021/11/17 13:21:22;;;;;;;34.58;20.02;;;11.50;99.90;;;;;;5063548;28;20032;-43
2021/11/17 13:24:03;;;;;;;37.05;20.85;;;11.40;99.90;;;;;;5060805;28;20419;-43
2021/11/17 13:26:44;;;;;;;36.33;19.13;;;11.40;99.90;;;;;;5063821;28;20058;-43
2021/11/17 13:29:23;;;;;;;33.88;17.67;;;11.40;99.90;;;;;;5064618;28;20016;-43
2021/11/17 13:32:11;;;;;;;31.10;17.25;;;11.40;99.90;;;;;;5057736;28;20507;-45
2021/11/17 13:35:05;;;;;;;28.15;15.68;;;11.50;99.90;;;;;;5046389;28;20068;-44
2021/11/17 13:37:37;;;;;;;25.92;15.00;;;11.60;99.90;;;;;;5058277;28;20384;-44
2021/11/17 13:40:10;;;;;;;29.13;15.55;;;11.80;99.90;;;;;;5057132;28;20069;-42
2021/11/17 13:42:38;;;;;;;25.05;13.40;;;12.00;99.90;;;;;;5067488;28;20070;-44
2021/11/17 13:45:16;;;;;;;22.50;13.05;;;12.10;99.90;;;;;;5067056;28;20089;-43
2021/11/17 13:47:42;;;;;;;25.10;12.82;;;12.30;99.90;;;;;;5067061;28;20192;-44
2021/11/17 13:50:09;;;;;;;23.88;11.25;;;12.30;99.90;;;;;;5067230;28;20500;-44
2021/11/17 13:52:38;;;;;;;24.17;11.32;;;12.50;99.90;;;;;;5066860;28;20025;-42
2021/11/17 13:55:07;;;;;;;18.67;9.65;;;12.50;99.90;;;;;;5062386;28;20016;-43
2021/11/17 13:57:33;;;;;;;17.67;7.75;;;12.60;99.90;;;;;;5067184;28;20028;-42
2021/11/17 13:59:59;;;;;;;12.38;6.65;;;12.60;99.90;;;;;;5065693;28;20028;-44
2021/11/17 14:02:25;;;;;;;16.13;6.82;;;12.60;99.90;;;;;;5067569;28;20115;-43
2021/11/17 14:04:51;;;;;;;13.93;6.18;;;12.60;99.90;;;;;;5066343;28;20028;-44
2021/11/17 14:07:21;;;;;;;16.30;6.60;;;12.60;99.90;;;;;;5066378;28;20510;-43
2021/11/17 14:09:47;;;;;;;16.23;5.60;;;12.60;99.90;;;;;;5067118;28;20046;-43
2021/11/17 14:12:13;;;;;;;12.50;4.35;;;12.60;99.90;;;;;;5066654;28;20033;-44
2021/11/17 14:14:39;;;;;;;13.20;4.25;;;12.60;99.90;;;;;;5065855;28;20023;-43
2021/11/17 14:17:05;;;;;;;12.02;3.97;;;12.60;99.90;;;;;;5066951;28;20037;-43
2021/11/17 14:19:31;;;;;;;19.70;4.22;;;12.50;99.90;;;;;;5066300;28;20021;-43
2021/11/17 14:21:57;;;;;;;12.63;3.00;;;12.50;99.90;;;;;;5065861;28;20032;-43
2021/11/17 14:24:23;;;;;;;13.48;2.83;;;12.40;99.90;;;;;;5067305;28;20139;-44
2021/11/17 14:26:50;;;;;;;9.82;2.75;;;12.50;99.90;;;;;;5066814;28;20025;-44
2021/11/17 14:29:32;;;;;;;12.10;3.03;;;12.50;99.90;;;;;;5066515;28;20033;-43
2021/11/17 14:32:02;;;;;;;11.68;3.47;;;12.50;99.90;;;;;;5067346;28;20036;-43
2021/11/17 14:34:29;;;;;;;12.55;2.80;;;12.50;99.90;;;;;;5066392;28;20024;-42
2021/11/17 14:37:04;;;;;;;10.98;2.67;;;12.50;99.90;;;;;;5065950;28;20093;-44
2021/11/17 14:39:32;;;;;;;11.57;2.63;;;12.50;99.90;;;;;;5066651;28;20087;-44
2021/11/17 14:41:58;;;;;;;11.85;2.45;;;12.50;99.90;;;;;;5065779;28;20025;-44
2021/11/17 14:44:23;;;;;;;11.40;4.05;;;12.60;99.90;;;;;;5066431;28;20033;-43
2021/11/17 14:46:49;;;;;;;12.82;3.58;;;12.60;99.90;;;;;;5066681;28;20020;-44
2021/11/17 14:49:17;;;;;;;15.68;3.03;;;12.50;99.90;;;;;;5066354;28;20470;-42
2021/11/17 14:51:43;;;;;;;11.20;2.92;;;12.40;99.90;;;;;;5065443;28;20182;-42
2021/11/17 14:54:09;;;;;;;9.48;2.50;;;12.30;99.90;;;;;;5065577;28;20695;-43
2021/11/17 14:56:36;;;;;;;7.82;2.25;;;12.20;99.90;;;;;;5065348;28;20029;-43
2021/11/17 14:59:02;;;;;;;11.68;2.30;;;12.10;99.90;;;;;;5066951;28;20028;-43
2021/11/17 15:01:31;;;;;;;8.73;1.98;;;12.00;99.90;;;;;;5066178;28;20872;-44
2021/11/17 15:03:59;;;;;;;11.05;2.10;;;11.80;99.90;;;;;;5065720;28;20036;-42
2021/11/17 15:06:27;;;;;;;9.10;2.30;;;11.80;99.90;;;;;;5065949;28;20025;-43
2021/11/17 15:08:53;;;;;;;10.43;2.50;;;11.60;99.90;;;;;;5070326;28;20028;-45
2021/11/17 15:11:20;;;;;;;9.20;2.28;;;11.50;99.90;;;;;;5069512;28;20037;-44
2021/11/17 15:13:47;;;;;;;8.73;2.35;;;11.40;99.90;;;;;;5070307;28;20159;-43
2021/11/17 15:16:13;;;;;;;12.05;2.58;;;11.30;99.90;;;;;;5069559;28;20044;-43
2021/11/17 15:18:43;;;;;;;8.40;2.50;;;11.20;99.90;;;;;;5069232;28;20032;-44
2021/11/17 15:21:09;;;;;;;9.02;2.40;;;11.20;99.90;;;;;;5070572;28;20024;-42
2021/11/17 15:23:34;;;;;;;8.55;2.55;;;11.10;99.90;;;;;;5070176;28;20511;-44
2021/11/17 15:26:04;;;;;;;10.25;2.40;;;11.00;99.90;;;;;;5069205;28;20360;-44
2021/11/17 15:28:36;;;;;;;9.02;2.50;;;10.90;99.90;;;;;;5070149;28;20387;-43
2021/11/17 15:31:06;;;;;;;9.80;2.65;;;10.80;99.90;;;;;;5068910;28;20631;-42
2021/11/17 15:33:33;;;;;;;10.55;2.20;;;10.80;99.90;;;;;;5069876;28;20051;-42
2021/11/17 15:35:59;;;;;;;10.65;2.75;;;10.70;99.90;;;;;;5069937;28;20372;-43
2021/11/17 15:38:27;;;;;;;6.63;2.10;;;10.60;99.90;;;;;;5068883;28;20016;-44
2021/11/17 15:40:55;;;;;;;9.68;2.65;;;10.60;99.90;;;;;;5069954;28;20133;-43
2021/11/17 15:43:22;;;;;;;7.38;2.15;;;10.50;99.90;;;;;;5069613;28;20927;-44
2021/11/17 15:45:50;;;;;;;6.05;1.80;;;10.40;99.90;;;;;;5060676;28;20017;-44
2021/11/17 15:48:17;;;;;;;7.90;2.70;;;10.40;99.90;;;;;;5069230;28;20372;-43
2021/11/17 15:50:49;;;;;;;10.43;1.95;;;10.30;99.90;;;;;;5069816;28;20063;-44